Pagina principale
METAR-TAF:

METAR-TAF

Aeroporti :

Aeroporto di Genova-Sestri

Genova, Italia

latitudine: 44-25N, longitudine: 008-51E, altezza: 2 m

Osservazione

Il bollettino è stato emesso 28 minuti fa, alle 07:50 UTC
Vento 3 kt da direzioni variabili
Temperature 18°C
Umidità 73%
Pressione 1008 hPa
Visibilità 10 km o più
Poco nuvoloso ad un'altezza di 2500 ft
Nuvoloso ad un'altezza di 6000 ft
pioggia debole

METAR: LIMJ 270750Z VRB03KT 9999 -RA FEW025 BKN060 18/13 Q1008

Ora: 10:18 (08:18 UTC)

Previsione

Il bollettino è stato emesso 3 ore e 18 minuti fa, alle 05:00 UTC
Previsione valida dal 27 alle 06 UTC al 28 alle 06 UTC
Vento 8 kt da nord/nord-est
Visibilità 10 km o più
Nubi sparse ad un'altezza di 2500 ft
Nuvoloso ad un'altezza di 5000 ft
Temporaneamente
dal 27 alle 06 UTC al 27 alle 15 UTC
pioggia

TAF: LIMJ 270500Z 2706/2806 03008KT 9999 SCT025 BKN050 TEMPO 2706/2715 RA

Osservazioni e previsioni meteorologiche di più di 4000 aeroporti (messaggi METAR e TAF).

Le stazioni disponibili sono rappresentate dai dischi gialli e rossi sulla carta.

Puntare il mouse per vedere il nome della stazione.

Clicca sopra per visualizzare le osservazioni e previsioni meteorologiche.

Per cambiare la mappa : fare clic sui pulsanti verdi con una croce nera per ingrandire, il pulsante verde con un trattino per diminuire, o sulla freccia verde per le mappe adiacenti.


METAR-TAF: